Flight Track Log - Related Links

Times and Time Zones

All times are in EDT time to prevent confusion due to time zone crossing. See the TCF642 flight status page for this flight to view local times or setup timezone preferences in your user account.

Time Position Orientation Groundspeed Altitude Reporting Facility
EDT Latitude Longitude Course Direction KTS MPH feet Rate Location/Type
Wed 10:56:49 PM 41.9500 -87.8667 264° West 187 215 2,600  Level Chicago TRACON
Wed 10:57:49 PM 41.9000 -87.9333 225° Southwest 258 297 4,700 1,250 Climbing Chicago TRACON
Wed 10:58:49 PM 41.8333 -88.0000 217° Southwest 272 313 5,100 1,217 Climbing Chicago TRACON
Wed 11:00:07 PM 41.7922 -88.1050 242° Southwest 269 310 7,500 2,547 Climbing Chicago Center
Wed 11:01:08 PM 41.7933 -88.2011 271° West 262 302 11,000 3,098 Climbing Chicago Center
Wed 11:02:00 PM 41.9176 -88.6379 264° West  Level FlightAware Approximate
Wed 11:02:09 PM 41.7917 -88.3014 269° West 265 305 13,800  Level Chicago Center
Wed 11:03:10 PM 41.8147 -88.4089 286° West 276 318 16,700 2,508 Climbing Chicago Center
Wed 11:04:11 PM 41.8372 -88.4947 289° West 269 310 18,900 2,311 Climbing Chicago Center
Wed 11:05:12 PM 41.8603 -88.5922 288° West 271 312 21,400 2,164 Climbing Chicago Center
Wed 11:06:13 PM 41.8861 -88.6956 289° West 288 331 23,300 1,869 Climbing Chicago Center
Wed 11:07:14 PM 41.9117 -88.8042 288° West 300 345 25,200 1,770 Climbing Chicago Center
Wed 11:08:15 PM 41.9094 -88.9194 269° West 305 351 26,900 1,869 Climbing Chicago Center
Wed 11:09:16 PM 41.9053 -89.0594 268° West 311 358 29,000 1,721 Climbing Chicago Center
Wed 11:10:17 PM 41.9011 -89.1764 267° West 312 359 30,400 1,230 Climbing Chicago Center
Wed 11:11:18 PM 41.8917 -89.2936 264° West 313 360 31,500 1,131 Climbing Chicago Center
Wed 11:12:19 PM 41.8797 -89.4139 262° West 319 367 32,700 984 Climbing Chicago Center
Wed 11:13:20 PM 41.8686 -89.5350 263° West 325 374 33,500 639 Climbing Chicago Center
Wed 11:14:21 PM 41.8561 -89.6589 262° West 331 381 34,000 246 Climbing Chicago Center
Wed 11:15:22 PM 41.8436 -89.7878 263° West 345 397 34,000  Level Chicago Center
Wed 11:16:23 PM 41.8336 -89.9133 264° West 345 397 34,000  Level Chicago Center
Wed 11:17:24 PM 41.8217 -90.0425 263° West 349 402 34,000  Level Chicago Center
Wed 11:18:25 PM 41.8114 -90.1683 264° West 346 398 34,000  Level Chicago Center
Wed 11:19:26 PM 41.7992 -90.2953 263° West 346 398 34,000  Level Chicago Center
Wed 11:20:27 PM 41.7853 -90.4342 262° West 356 410 34,000  Level Chicago Center
Wed 11:21:28 PM 41.7731 -90.5611 263° West 349 402 34,000  Level Chicago Center
Wed 11:22:29 PM 41.7597 -90.7069 263° West 349 402 34,000  Level Chicago Center
Wed 11:23:30 PM 41.7464 -90.8339 262° West 348 400 34,000  Level Chicago Center
Wed 11:24:31 PM 41.7347 -90.9617 263° West 348 400 34,000  Level Chicago Center
Wed 11:25:32 PM 41.7219 -91.0883 262° West 348 400 34,000  Level Chicago Center
Wed 11:26:33 PM 41.7147 -91.2175 266° West 348 400 34,000  Level Chicago Center
Wed 11:27:33 PM 41.7056 -91.3442 265° West 347 399 34,000  Level Chicago Center
Wed 11:28:34 PM 41.6967 -91.4722 265° West 347 399 34,000  Level Chicago Center
Wed 11:29:35 PM 41.6883 -91.6006 265° West 347 399 34,000  Level Chicago Center
Wed 11:31:09 PM 41.6736 -91.8022 264° West 346 398 34,000  Level Chicago Center
Wed 11:32:09 PM 41.6647 -91.9300 265° West 346 398 34,000  Level Chicago Center
Wed 11:33:10 PM 41.6550 -92.0572 264° West 346 398 34,000  Level Chicago Center
Wed 11:34:11 PM 41.6447 -92.1847 264° West 346 398 34,000  Level Chicago Center
Wed 11:35:12 PM 41.6128 -92.3014 250° West 346 398 34,000  Level Chicago Center
Wed 11:36:12 PM 41.5664 -92.4467 247° West 354 407 34,000  Level Chicago Center
Wed 11:37:13 PM 41.5281 -92.5628 246° West 348 400 34,000  Level Chicago Center
Wed 11:38:14 PM 41.4908 -92.6803 247° West 347 399 34,000  Level Chicago Center
Wed 11:38:51 PM 41.4719 -92.7364 246° West 346 398 34,000  Level Minneapolis Center
Wed 11:39:52 PM 41.4511 -92.8606 257° West 346 398 34,000  Level Minneapolis Center
Wed 11:40:53 PM 41.4456 -93.0156 267° West 351 404 34,000  Level Minneapolis Center
Wed 11:41:54 PM 41.4403 -93.1425 267° West 351 404 34,000  Level Minneapolis Center
Wed 11:42:55 PM 41.4350 -93.2697 267° West 350 403 34,000  Level Minneapolis Center
Wed 11:43:56 PM 41.4306 -93.3981 267° West 350 403 34,000  Level Minneapolis Center
Wed 11:44:57 PM 41.4250 -93.5269 267° West 350 403 34,000  Level Minneapolis Center
Wed 11:45:57 PM 41.4189 -93.6561 266° West 350 403 34,000  Level Minneapolis Center
Wed 11:46:58 PM 41.4139 -93.7844 267° West 350 403 34,000  Level Minneapolis Center
Wed 11:47:59 PM 41.4078 -93.9117 266° West 350 403 34,000  Level Minneapolis Center
Wed 11:49:00 PM 41.4067 -94.0669 270° West 350 403 34,000  Level Minneapolis Center
Wed 11:50:01 PM 41.4122 -94.1967 273° West 351 404 34,000 -885 Level Minneapolis Center
Wed 11:51:02 PM 41.4164 -94.3156 273° West 351 404 32,200 -2,066 Descending Minneapolis Center
Wed 11:52:03 PM 41.4206 -94.4469 272° West 354 407 29,800 -2,213 Descending Minneapolis Center
Wed 11:53:04 PM 41.4242 -94.5756 272° West 351 404 27,700 -2,115 Descending Minneapolis Center
Wed 11:54:05 PM 41.4275 -94.7017 272° West 346 398 25,500 -2,083 Descending Minneapolis Center
Wed 11:55:05 PM 41.4308 -94.8258 272° West 340 391 23,500 -2,258 Descending Minneapolis Center
Wed 11:55:38 PM 41.4467 -94.9225 282° West 331 381 22,000 -2,066 Descending Minneapolis Center
Wed 11:56:06 PM 41.4339 -94.9464 234° Southwest 334 384 21,400 -1,955 Descending Minneapolis Center
Wed 11:57:07 PM 41.4375 -95.0853 272° West 318 366 19,100 -2,016 Descending Minneapolis Center
Wed 11:58:08 PM 41.4400 -95.1994 272° West 312 359 17,300 -1,767 Descending Minneapolis Center
Wed 11:59:16 PM 41.4636 -95.3269 284° West 283 326 15,300 -1,674 Descending Minneapolis Center
Thu 12:00:17 AM 41.4747 -95.4256 279° West 265 305 13,700 -1,947 Descending Minneapolis Center
Thu 12:01:10 AM 41.4783 -95.4994 274° West 268 308 11,600 -2,263 Descending Minneapolis Center
Thu 12:02:11 AM 41.4869 -95.6003 277° West 268 308 9,400 -2,000 Descending Minneapolis Center
Thu 12:03:19 AM 41.4956 -95.7292 275° West 272 313 7,300 -1,922 Descending Minneapolis Center
Thu 12:04:19 AM 41.5003 -95.8317 274° West 272 313 5,300 -1,789 Descending Minneapolis Center
Thu 12:05:13 AM 41.5056 -95.9011 276° West 270 311 3,900 -1,096 Descending Minneapolis Center
Thu 12:06:14 AM 41.5003 -95.9844 265° West 250 288 3,200 -443 Descending Minneapolis Center
Thu 12:07:15 AM 41.4533 -96.0294 216° Southwest 242 278 3,000 -98 Descending Minneapolis Center
Thu 12:08:16 AM 41.4092 -95.9975 152° Southeast 201 231 3,000 -331 Level Minneapolis Center
Thu 12:09:22 AM 41.3600 -95.9564 148° Southeast 161 185 2,300 -694 Descending Minneapolis Center
Thu 12:10:17 AM 41.3375 -95.9264 135° Southeast 164 189 1,600 -672 Descending Minneapolis Center
Thu 12:11:18 AM 41.3067 -95.8989 146° Southeast 147 169 1,000 -590 Descending Minneapolis Center
Thu 12:13:00 AM 41.3032 -95.8941 143° Southeast  Level Estimated

Login

Don't have an account? Register now (free) for customized features, flight alerts, and more!